Station info - map view · info · telemetry · weather · raw · status · beacons · messages · bulletins · browse · moving · my account
Callsign, ship name or locator: Clear       
It is possible to search using wildcards (*?) after a prefix. Example: OH*
APRS station W9DAC-9 - show graphs
Map loading...
Comment: W9DAC
Mic-E message: In service
Location: 40°17.03' N 86°01.89' W - locator EN60XG68FC - show map - static map
0.5 miles East bearing 78° from Tipton, Tipton County, Indiana, United States [?]
7.5 miles North bearing 356° from Arcadia, Hamilton County, Indiana, United States
36.2 miles North bearing 11° from Indianapolis, Marion County, Indiana, United States
75.2 miles Southwest bearing 219° from Fort Wayne, Allen County, Indiana, United States
Last position: 2020-03-28 14:09:20 EDT (3d 1h5m ago)
2020-03-28 14:09:20 EDT local time at Tipton, United States [?]
Altitude: 853 ft
Course: 359°
Speed: 14 MPH
Device: Kenwood: TM-D710 (rig)
Last path: W9DAC-9>T0QW0S via W9ICE-10,WIDE1*,WIDE2-1,qAR,WB9EOC-10 (good)
Positions stored: 8451
Stations near current position of W9DAC-9 - show more
callsign distance last heard - EDT      callsign distance last heard - EDT
EW45850.8 miles 290°2020-03-31 15:10:02 DW85735.8 miles 224°2020-03-31 15:00:14
FW32686.4 miles 352°2020-03-31 15:10:41 KB9PFM-98.2 miles 236°2020-03-21 18:25:54
KB9PFM8.2 miles 235°2020-03-31 14:57:43 KB9PFM-118.2 miles 235°2020-03-31 14:45:38
145.350IN8.3 miles 346°2020-03-31 13:56:00 KB9PFM-108.3 miles 236°2020-03-31 15:13:25
WB9FND-28.7 miles 0°2020-03-15 20:01:37 W9SMJ-18.9 miles 347°2020-03-31 15:03:44
K9FB B11.1 miles 334°2020-03-31 15:01:48 K9FB-B11.1 miles 334°2020-03-31 15:01:58
N8RAW11.5 miles 206°2020-03-13 09:38:13 K9FB-112.0 miles 338°2020-03-27 09:42:56
K9FB-N12.0 miles 338°2020-03-31 14:58:43 K9FB12.0 miles 338°2020-03-25 12:22:18
K9FB-712.0 miles 338°2020-03-07 20:57:31 DW842812.0 miles 189°2020-03-31 15:00:39
EW538412.2 miles 37°2020-03-31 15:01:20 N9TDC13.1 miles 184°2020-03-22 09:50:50
Stations which heard W9DAC-9 directly on radio –
callsign pkts first heard - EDT last heard longest (tx => rx) longest at - EDT
KB9PFM-10 22 2020-03-01 18:32:21 2020-03-28 10:53:47 EN60XH > EN60WF 8.9 miles 230° 2020-03-06 08:19:11
AB4KN-2 10 2020-03-01 08:09:38 2020-03-01 08:38:42 EM73VK > EM73RL 22.6 miles 281° 2020-03-01 08:09:38
NT4UX-2 1 2020-03-01 11:45:40 2020-03-01 11:45:40 EM65TT > EM75AU 24.0 miles 81° 2020-03-01 11:45:40
N9UMJ-10 2 2020-03-01 16:47:05 2020-03-01 16:58:20 EM78BX > EM68QR 46.0 miles 252° 2020-03-01 16:58:20
W1ARN-1 11 2020-03-01 11:59:40 2020-03-01 13:20:35 EM65QX > EM66SL 33.2 miles 12° 2020-03-01 11:59:40
N9AMN-2 5 2020-03-01 17:42:46 2020-03-01 17:52:09 EM69XS > EM69WR 6.8 miles 247° 2020-03-01 17:52:09
W9GO-3 39 2020-03-03 16:27:11 2020-03-27 14:32:20 EN60XG > EN60WL 14.9 miles 337° 2020-03-14 11:02:00
N9AMN-3 9 2020-03-01 17:59:28 2020-03-28 10:54:15 EN60XG > EM69XV 26.3 miles 179° 2020-03-28 10:54:15
KJ4NES-3 14 2020-03-01 13:39:02 2020-03-01 14:47:57 EM67VA > EM67RA 15.3 miles 265° 2020-03-01 14:47:57
KA4EMA-3 5 2020-03-01 10:06:09 2020-03-01 10:23:13 EM74KV > EM75IE 21.5 miles 339° 2020-03-01 10:06:09
W9ICE-10 85 2020-03-01 17:34:37 2020-03-28 14:09:20 EN60XK > EM69VV 37.2 miles 191° 2020-03-05 08:06:42
N9LQP-2 14 2020-03-01 17:00:25 2020-03-01 17:38:35 EM69XO > EM79FF 35.2 miles 133° 2020-03-01 17:38:35
W4AQL-5 5 2020-03-01 08:37:21 2020-03-01 08:45:19 EM73SU > EM73TS 5.5 miles 159° 2020-03-01 08:45:19
K5OLV-2 2 2020-03-01 10:30:25 2020-03-01 10:36:31 EM74HX > EM74GU 8.7 miles 203° 2020-03-01 10:30:25
KC9MWQ-1 18 2020-03-09 11:34:55 2020-03-27 14:36:21 EN60XG > EN70EO 30.4 miles 42° 2020-03-18 18:47:38
N9CVA-10 20 2020-03-01 15:52:36 2020-03-01 16:49:05 EM78CT > EM78BI 31.1 miles 183° 2020-03-01 16:49:05
N4YH-10 4 2020-03-01 10:08:09 2020-03-01 10:20:11 EM74KW > EM75JI 27.5 miles 359° 2020-03-01 10:08:09
K4HCK 1 2020-03-01 11:39:41 2020-03-01 11:39:41 EM65UR > EM65TT 7.0 miles 329° 2020-03-01 11:39:41
K3HTK-1 1 2020-03-08 08:04:29 2020-03-08 08:04:29 EN60XG > EN60XA 17.5 miles 175° 2020-03-08 08:04:29
W9SMJ-1 327 2020-03-01 18:36:23 2020-03-28 10:52:45 EN60XG > EN60XJ 10.0 miles 351° 2020-03-11 17:57:48
N3DAB-1 3 2020-03-01 08:57:32 2020-03-01 09:51:22 EM74LR > EM74TL 41.1 miles 114° 2020-03-01 09:51:22
N4NE-2 1 2020-03-01 08:59:38 2020-03-01 08:59:38 EM74RA > EM74WF 27.6 miles 59° 2020-03-01 08:59:38
K4EGC-1 6 2020-03-01 11:03:40 2020-03-01 11:24:22 EM75BF > EM65WJ 18.8 miles 309° 2020-03-01 11:03:40
NA4ME-4 6 2020-03-01 09:45:36 2020-03-01 10:00:53 EM74MP > EM74KT 13.6 miles 327° 2020-03-01 09:45:36
N4LMC-3 9 2020-03-01 09:30:13 2020-03-01 10:35:18 EM74MJ > EM74HU 42.6 miles 321° 2020-03-01 09:30:13
KM4SQK-1 3 2020-03-01 09:00:49 2020-03-01 09:03:53 EM74QB > EM74QB 2.5 miles 137° 2020-03-01 09:03:53
KD4TXF 1 2020-03-01 11:43:40 2020-03-01 11:43:40 EM65TS > EM65UV 9.1 miles 14° 2020-03-01 11:43:40
KN4BNP-1 3 2020-03-01 16:02:46 2020-03-01 16:07:04 EM78DD > EM78ED 4.8 miles 118° 2020-03-01 16:07:04

Only position packets which were originated by the station are shown here. The range statistics show some extra long hops, because some digipeaters do not correctly add themselves to the digipeater path. Please check the raw packets.
About this site
This page shows real-time information collected from the Automatic Position Reporting System Internet network (APRS-IS). APRS is used by amateur (ham) radio operators to transmit real-time position information, weather data, telemetry and messages over the radio. A vehicle equipped with a GPS receiver, a VHF transmitter or HF transceiver and a small computer device called a tracker transmits it's location, speed and course in a small data packet, which is then received by a nearby iGate receiving site which forwards the packet on the Internet. Systems connected to the Internet can send information on the APRS-IS without a radio transmitter, or collect and display information transmitted anywhere in the world.
User guide · FAQ · Blog · Discussion group · Linking to aprs.fi · AIS sites · Service status · Database statistics · Advertising on aprs.fi · Technical details · API · Change log · Planned changes · Credits and thanks · Terms Of Service · iPhone/iPad APRS